sensor_id;sensor_type;location;lat;lon;timestamp;P1;durP1;ratioP1;P2;durP2;ratioP2
83827;SDS011;73850;48.870;12.562;2023-11-22T00:00:54;2.10;;;1.58;;
83827;SDS011;73850;48.870;12.562;2023-11-22T00:03:20;2.20;;;1.92;;
83827;SDS011;73850;48.870;12.562;2023-11-22T00:05:45;3.72;;;3.05;;
83827;SDS011;73850;48.870;12.562;2023-11-22T00:08:11;4.40;;;2.00;;
83827;SDS011;73850;48.870;12.562;2023-11-22T00:10:37;1.90;;;1.63;;
83827;SDS011;73850;48.870;12.562;2023-11-22T00:13:04;2.25;;;2.00;;
83827;SDS011;73850;48.870;12.562;2023-11-22T00:15:30;2.35;;;2.15;;
83827;SDS011;73850;48.870;12.562;2023-11-22T00:17:56;2.42;;;2.03;;
83827;SDS011;73850;48.870;12.562;2023-11-22T00:20:23;2.95;;;2.22;;
83827;SDS011;73850;48.870;12.562;2023-11-22T00:22:48;2.90;;;2.05;;
83827;SDS011;73850;48.870;12.562;2023-11-22T00:25:15;2.53;;;2.17;;
83827;SDS011;73850;48.870;12.562;2023-11-22T00:27:40;2.58;;;2.38;;
83827;SDS011;73850;48.870;12.562;2023-11-22T00:30:07;3.95;;;2.97;;
83827;SDS011;73850;48.870;12.562;2023-11-22T00:32:34;2.80;;;2.42;;
83827;SDS011;73850;48.870;12.562;2023-11-22T00:35:00;3.00;;;1.90;;
83827;SDS011;73850;48.870;12.562;2023-11-22T00:37:26;3.45;;;2.30;;
83827;SDS011;73850;48.870;12.562;2023-11-22T00:39:51;3.70;;;2.10;;
83827;SDS011;73850;48.870;12.562;2023-11-22T00:42:17;3.13;;;2.03;;
83827;SDS011;73850;48.870;12.562;2023-11-22T00:44:45;4.05;;;2.50;;
83827;SDS011;73850;48.870;12.562;2023-11-22T00:47:12;3.63;;;2.25;;
83827;SDS011;73850;48.870;12.562;2023-11-22T00:49:38;2.45;;;1.90;;
83827;SDS011;73850;48.870;12.562;2023-11-22T00:52:04;2.97;;;2.08;;
83827;SDS011;73850;48.870;12.562;2023-11-22T00:54:29;2.53;;;1.83;;
83827;SDS011;73850;48.870;12.562;2023-11-22T00:56:55;2.35;;;2.00;;
83827;SDS011;73850;48.870;12.562;2023-11-22T00:59:21;2.85;;;2.20;;
83827;SDS011;73850;48.870;12.562;2023-11-22T01:01:46;3.05;;;2.13;;
83827;SDS011;73850;48.870;12.562;2023-11-22T01:04:12;2.00;;;1.70;;
83827;SDS011;73850;48.870;12.562;2023-11-22T01:06:38;3.30;;;1.77;;
83827;SDS011;73850;48.870;12.562;2023-11-22T01:09:05;2.85;;;2.17;;
83827;SDS011;73850;48.870;12.562;2023-11-22T01:11:34;3.25;;;2.20;;
83827;SDS011;73850;48.870;12.562;2023-11-22T01:13:59;3.53;;;2.35;;
83827;SDS011;73850;48.870;12.562;2023-11-22T01:16:25;3.47;;;2.17;;
83827;SDS011;73850;48.870;12.562;2023-11-22T01:18:51;3.38;;;2.03;;
83827;SDS011;73850;48.870;12.562;2023-11-22T01:23:44;2.50;;;2.10;;
83827;SDS011;73850;48.870;12.562;2023-11-22T01:26:10;2.90;;;2.08;;
83827;SDS011;73850;48.870;12.562;2023-11-22T01:28:37;3.63;;;2.60;;
83827;SDS011;73850;48.870;12.562;2023-11-22T01:31:05;3.28;;;2.20;;
83827;SDS011;73850;48.870;12.562;2023-11-22T01:33:31;2.55;;;1.90;;
83827;SDS011;73850;48.870;12.562;2023-11-22T01:36:01;3.17;;;2.35;;
83827;SDS011;73850;48.870;12.562;2023-11-22T01:38:27;2.60;;;2.17;;
83827;SDS011;73850;48.870;12.562;2023-11-22T01:40:52;2.90;;;2.20;;
83827;SDS011;73850;48.870;12.562;2023-11-22T01:43:19;3.00;;;2.22;;
83827;SDS011;73850;48.870;12.562;2023-11-22T01:45:52;2.70;;;2.25;;
83827;SDS011;73850;48.870;12.562;2023-11-22T01:48:19;2.80;;;2.33;;
83827;SDS011;73850;48.870;12.562;2023-11-22T01:50:46;3.97;;;2.75;;
83827;SDS011;73850;48.870;12.562;2023-11-22T01:53:12;3.70;;;2.10;;
83827;SDS011;73850;48.870;12.562;2023-11-22T01:55:38;3.13;;;2.30;;
83827;SDS011;73850;48.870;12.562;2023-11-22T01:58:04;2.88;;;2.58;;
83827;SDS011;73850;48.870;12.562;2023-11-22T02:02:57;2.97;;;2.00;;
83827;SDS011;73850;48.870;12.562;2023-11-22T02:05:23;3.33;;;2.22;;
83827;SDS011;73850;48.870;12.562;2023-11-22T02:07:49;2.90;;;2.50;;
83827;SDS011;73850;48.870;12.562;2023-11-22T02:10:15;3.10;;;2.10;;
83827;SDS011;73850;48.870;12.562;2023-11-22T02:15:07;3.03;;;1.90;;
83827;SDS011;73850;48.870;12.562;2023-11-22T02:17:33;3.60;;;2.72;;
83827;SDS011;73850;48.870;12.562;2023-11-22T02:19:59;4.10;;;2.83;;
83827;SDS011;73850;48.870;12.562;2023-11-22T02:22:25;3.75;;;2.55;;
83827;SDS011;73850;48.870;12.562;2023-11-22T02:24:50;3.13;;;2.25;;
83827;SDS011;73850;48.870;12.562;2023-11-22T02:27:16;3.90;;;2.53;;
83827;SDS011;73850;48.870;12.562;2023-11-22T02:29:42;2.78;;;2.35;;
83827;SDS011;73850;48.870;12.562;2023-11-22T02:32:09;3.25;;;2.42;;
83827;SDS011;73850;48.870;12.562;2023-11-22T02:34:35;3.40;;;2.72;;
83827;SDS011;73850;48.870;12.562;2023-11-22T02:37:01;3.17;;;2.05;;
83827;SDS011;73850;48.870;12.562;2023-11-22T02:39:28;4.50;;;2.50;;
83827;SDS011;73850;48.870;12.562;2023-11-22T02:42:06;3.25;;;2.40;;
83827;SDS011;73850;48.870;12.562;2023-11-22T02:44:31;3.88;;;2.15;;
83827;SDS011;73850;48.870;12.562;2023-11-22T02:46:57;2.60;;;2.40;;
83827;SDS011;73850;48.870;12.562;2023-11-22T02:49:24;2.78;;;2.28;;
83827;SDS011;73850;48.870;12.562;2023-11-22T02:51:50;3.25;;;2.38;;
83827;SDS011;73850;48.870;12.562;2023-11-22T02:54:15;1.73;;;1.55;;
83827;SDS011;73850;48.870;12.562;2023-11-22T02:56:41;3.60;;;1.70;;
83827;SDS011;73850;48.870;12.562;2023-11-22T02:59:07;2.60;;;2.10;;
83827;SDS011;73850;48.870;12.562;2023-11-22T03:01:38;2.97;;;1.90;;
83827;SDS011;73850;48.870;12.562;2023-11-22T03:04:07;2.78;;;2.05;;
83827;SDS011;73850;48.870;12.562;2023-11-22T03:06:35;2.60;;;1.80;;
83827;SDS011;73850;48.870;12.562;2023-11-22T03:09:01;2.10;;;1.88;;
83827;SDS011;73850;48.870;12.562;2023-11-22T03:11:27;2.92;;;1.90;;
83827;SDS011;73850;48.870;12.562;2023-11-22T03:13:52;2.33;;;2.13;;
83827;SDS011;73850;48.870;12.562;2023-11-22T03:16:18;4.75;;;2.20;;
83827;SDS011;73850;48.870;12.562;2023-11-22T03:18:44;2.42;;;1.80;;
83827;SDS011;73850;48.870;12.562;2023-11-22T03:21:10;2.33;;;1.70;;
83827;SDS011;73850;48.870;12.562;2023-11-22T03:23:35;2.15;;;1.73;;
83827;SDS011;73850;48.870;12.562;2023-11-22T03:26:01;2.22;;;2.03;;
83827;SDS011;73850;48.870;12.562;2023-11-22T03:28:26;2.30;;;1.63;;
83827;SDS011;73850;48.870;12.562;2023-11-22T03:30:55;2.25;;;1.63;;
83827;SDS011;73850;48.870;12.562;2023-11-22T03:33:21;2.42;;;2.13;;
83827;SDS011;73850;48.870;12.562;2023-11-22T03:35:46;2.55;;;2.17;;
83827;SDS011;73850;48.870;12.562;2023-11-22T03:38:12;2.38;;;1.92;;
83827;SDS011;73850;48.870;12.562;2023-11-22T03:40:38;3.22;;;1.85;;
83827;SDS011;73850;48.870;12.562;2023-11-22T03:43:03;1.60;;;1.50;;
83827;SDS011;73850;48.870;12.562;2023-11-22T03:45:29;1.80;;;1.70;;
83827;SDS011;73850;48.870;12.562;2023-11-22T03:47:55;2.47;;;1.35;;
83827;SDS011;73850;48.870;12.562;2023-11-22T03:50:20;2.10;;;1.90;;
83827;SDS011;73850;48.870;12.562;2023-11-22T03:52:46;2.45;;;1.77;;
83827;SDS011;73850;48.870;12.562;2023-11-22T03:55:12;2.20;;;1.75;;
83827;SDS011;73850;48.870;12.562;2023-11-22T03:57:37;2.13;;;1.80;;
83827;SDS011;73850;48.870;12.562;2023-11-22T04:00:03;1.60;;;1.35;;
83827;SDS011;73850;48.870;12.562;2023-11-22T04:02:37;2.30;;;1.80;;
83827;SDS011;73850;48.870;12.562;2023-11-22T04:05:03;2.78;;;1.85;;
83827;SDS011;73850;48.870;12.562;2023-11-22T04:07:29;1.95;;;1.63;;
83827;SDS011;73850;48.870;12.562;2023-11-22T04:09:55;1.77;;;1.30;;
83827;SDS011;73850;48.870;12.562;2023-11-22T04:12:21;2.97;;;1.80;;
83827;SDS011;73850;48.870;12.562;2023-11-22T04:14:47;2.00;;;1.67;;
83827;SDS011;73850;48.870;12.562;2023-11-22T04:17:13;3.03;;;1.65;;
83827;SDS011;73850;48.870;12.562;2023-11-22T04:19:38;2.90;;;1.83;;
83827;SDS011;73850;48.870;12.562;2023-11-22T04:22:04;2.33;;;1.70;;
83827;SDS011;73850;48.870;12.562;2023-11-22T04:24:29;2.60;;;2.13;;
83827;SDS011;73850;48.870;12.562;2023-11-22T04:26:55;2.40;;;1.67;;
83827;SDS011;73850;48.870;12.562;2023-11-22T04:29:20;1.70;;;1.42;;
83827;SDS011;73850;48.870;12.562;2023-11-22T04:31:46;2.75;;;1.85;;
83827;SDS011;73850;48.870;12.562;2023-11-22T04:34:12;2.65;;;1.60;;
83827;SDS011;73850;48.870;12.562;2023-11-22T04:36:38;1.98;;;1.58;;
83827;SDS011;73850;48.870;12.562;2023-11-22T04:39:06;2.55;;;1.90;;
83827;SDS011;73850;48.870;12.562;2023-11-22T04:41:32;2.60;;;1.75;;
83827;SDS011;73850;48.870;12.562;2023-11-22T04:43:59;2.33;;;1.60;;
83827;SDS011;73850;48.870;12.562;2023-11-22T04:46:25;2.08;;;1.55;;
83827;SDS011;73850;48.870;12.562;2023-11-22T04:48:51;2.05;;;1.67;;
83827;SDS011;73850;48.870;12.562;2023-11-22T04:51:16;2.72;;;1.52;;
83827;SDS011;73850;48.870;12.562;2023-11-22T04:53:42;2.15;;;1.42;;
83827;SDS011;73850;48.870;12.562;2023-11-22T04:56:09;1.85;;;1.45;;
83827;SDS011;73850;48.870;12.562;2023-11-22T04:58:34;2.38;;;2.00;;
83827;SDS011;73850;48.870;12.562;2023-11-22T05:01:01;1.92;;;1.60;;
83827;SDS011;73850;48.870;12.562;2023-11-22T05:03:27;2.10;;;1.80;;
83827;SDS011;73850;48.870;12.562;2023-11-22T05:05:52;1.88;;;1.65;;
83827;SDS011;73850;48.870;12.562;2023-11-22T05:08:18;2.33;;;1.67;;
83827;SDS011;73850;48.870;12.562;2023-11-22T05:10:44;2.85;;;1.77;;
83827;SDS011;73850;48.870;12.562;2023-11-22T05:13:09;2.35;;;1.67;;
83827;SDS011;73850;48.870;12.562;2023-11-22T05:15:35;2.08;;;1.80;;
83827;SDS011;73850;48.870;12.562;2023-11-22T05:18:01;2.72;;;1.90;;
83827;SDS011;73850;48.870;12.562;2023-11-22T05:20:27;2.10;;;1.80;;
83827;SDS011;73850;48.870;12.562;2023-11-22T05:22:53;2.72;;;2.17;;
83827;SDS011;73850;48.870;12.562;2023-11-22T05:25:18;2.60;;;2.15;;
83827;SDS011;73850;48.870;12.562;2023-11-22T05:27:44;2.33;;;1.85;;
83827;SDS011;73850;48.870;12.562;2023-11-22T05:30:10;2.40;;;1.85;;
83827;SDS011;73850;48.870;12.562;2023-11-22T05:32:36;2.78;;;2.35;;
83827;SDS011;73850;48.870;12.562;2023-11-22T05:35:01;2.50;;;1.90;;
83827;SDS011;73850;48.870;12.562;2023-11-22T05:37:29;2.45;;;2.25;;
83827;SDS011;73850;48.870;12.562;2023-11-22T05:39:54;3.88;;;2.33;;
83827;SDS011;73850;48.870;12.562;2023-11-22T05:42:20;2.63;;;2.13;;
83827;SDS011;73850;48.870;12.562;2023-11-22T05:44:46;3.58;;;2.40;;
83827;SDS011;73850;48.870;12.562;2023-11-22T05:47:11;3.03;;;2.60;;
83827;SDS011;73850;48.870;12.562;2023-11-22T05:49:38;4.03;;;2.80;;
83827;SDS011;73850;48.870;12.562;2023-11-22T05:52:04;4.15;;;2.88;;
83827;SDS011;73850;48.870;12.562;2023-11-22T05:54:29;2.75;;;2.45;;
83827;SDS011;73850;48.870;12.562;2023-11-22T05:56:56;3.80;;;2.90;;
83827;SDS011;73850;48.870;12.562;2023-11-22T05:59:22;3.03;;;2.20;;
83827;SDS011;73850;48.870;12.562;2023-11-22T06:01:49;3.33;;;2.63;;
83827;SDS011;73850;48.870;12.562;2023-11-22T06:04:14;2.90;;;2.60;;
83827;SDS011;73850;48.870;12.562;2023-11-22T06:06:40;4.03;;;2.97;;
83827;SDS011;73850;48.870;12.562;2023-11-22T06:09:06;2.97;;;2.47;;
83827;SDS011;73850;48.870;12.562;2023-11-22T06:11:32;2.95;;;2.55;;
83827;SDS011;73850;48.870;12.562;2023-11-22T06:16:24;3.10;;;2.50;;
83827;SDS011;73850;48.870;12.562;2023-11-22T06:18:50;3.63;;;2.60;;
83827;SDS011;73850;48.870;12.562;2023-11-22T06:21:16;3.30;;;2.60;;
83827;SDS011;73850;48.870;12.562;2023-11-22T06:23:41;2.92;;;2.53;;
83827;SDS011;73850;48.870;12.562;2023-11-22T06:26:07;3.05;;;2.70;;
83827;SDS011;73850;48.870;12.562;2023-11-22T06:28:33;5.30;;;2.60;;
83827;SDS011;73850;48.870;12.562;2023-11-22T06:30:59;2.90;;;2.60;;
83827;SDS011;73850;48.870;12.562;2023-11-22T06:33:25;3.13;;;2.67;;
83827;SDS011;73850;48.870;12.562;2023-11-22T06:35:51;3.53;;;2.70;;
83827;SDS011;73850;48.870;12.562;2023-11-22T06:38:16;3.72;;;2.78;;
83827;SDS011;73850;48.870;12.562;2023-11-22T06:40:42;4.00;;;2.88;;
83827;SDS011;73850;48.870;12.562;2023-11-22T06:43:08;2.70;;;2.33;;
83827;SDS011;73850;48.870;12.562;2023-11-22T06:45:34;4.35;;;2.80;;
83827;SDS011;73850;48.870;12.562;2023-11-22T06:47:59;3.95;;;2.97;;
83827;SDS011;73850;48.870;12.562;2023-11-22T06:50:25;3.03;;;2.47;;
83827;SDS011;73850;48.870;12.562;2023-11-22T06:52:51;3.45;;;2.63;;
83827;SDS011;73850;48.870;12.562;2023-11-22T06:55:18;3.17;;;2.88;;
83827;SDS011;73850;48.870;12.562;2023-11-22T06:57:43;3.35;;;2.22;;
83827;SDS011;73850;48.870;12.562;2023-11-22T07:00:09;3.05;;;2.53;;
83827;SDS011;73850;48.870;12.562;2023-11-22T07:05:02;4.38;;;3.13;;
83827;SDS011;73850;48.870;12.562;2023-11-22T07:07:28;4.03;;;2.80;;
83827;SDS011;73850;48.870;12.562;2023-11-22T07:09:54;4.10;;;2.78;;
83827;SDS011;73850;48.870;12.562;2023-11-22T07:12:23;3.35;;;2.65;;
83827;SDS011;73850;48.870;12.562;2023-11-22T07:14:49;2.65;;;2.30;;
83827;SDS011;73850;48.870;12.562;2023-11-22T07:17:15;3.50;;;2.70;;
83827;SDS011;73850;48.870;12.562;2023-11-22T07:19:43;5.10;;;3.00;;
83827;SDS011;73850;48.870;12.562;2023-11-22T07:22:15;3.58;;;2.88;;
83827;SDS011;73850;48.870;12.562;2023-11-22T07:24:43;3.50;;;3.20;;
83827;SDS011;73850;48.870;12.562;2023-11-22T07:27:11;3.85;;;3.00;;
83827;SDS011;73850;48.870;12.562;2023-11-22T07:29:40;4.18;;;3.00;;
83827;SDS011;73850;48.870;12.562;2023-11-22T07:32:06;3.60;;;2.70;;
83827;SDS011;73850;48.870;12.562;2023-11-22T07:34:34;3.33;;;2.72;;
83827;SDS011;73850;48.870;12.562;2023-11-22T07:39:25;3.97;;;2.75;;
83827;SDS011;73850;48.870;12.562;2023-11-22T07:41:55;4.10;;;2.58;;
83827;SDS011;73850;48.870;12.562;2023-11-22T07:46:47;6.20;;;3.05;;
83827;SDS011;73850;48.870;12.562;2023-11-22T07:49:13;4.45;;;3.30;;
83827;SDS011;73850;48.870;12.562;2023-11-22T07:51:39;4.22;;;3.00;;
83827;SDS011;73850;48.870;12.562;2023-11-22T07:54:05;4.70;;;3.30;;
83827;SDS011;73850;48.870;12.562;2023-11-22T07:56:31;3.45;;;2.97;;
83827;SDS011;73850;48.870;12.562;2023-11-22T07:58:58;4.05;;;3.58;;
83827;SDS011;73850;48.870;12.562;2023-11-22T08:01:23;4.43;;;3.53;;
83827;SDS011;73850;48.870;12.562;2023-11-22T08:03:50;4.28;;;3.10;;
83827;SDS011;73850;48.870;12.562;2023-11-22T08:06:17;3.35;;;3.05;;
83827;SDS011;73850;48.870;12.562;2023-11-22T08:08:43;4.68;;;3.97;;
83827;SDS011;73850;48.870;12.562;2023-11-22T08:11:11;4.10;;;3.70;;
83827;SDS011;73850;48.870;12.562;2023-11-22T08:13:43;4.85;;;3.88;;
83827;SDS011;73850;48.870;12.562;2023-11-22T08:16:10;4.50;;;3.55;;
83827;SDS011;73850;48.870;12.562;2023-11-22T08:18:38;5.00;;;4.15;;
83827;SDS011;73850;48.870;12.562;2023-11-22T08:21:05;4.65;;;3.80;;
83827;SDS011;73850;48.870;12.562;2023-11-22T08:23:31;5.00;;;3.67;;
83827;SDS011;73850;48.870;12.562;2023-11-22T08:26:00;6.85;;;4.30;;
83827;SDS011;73850;48.870;12.562;2023-11-22T08:28:26;4.97;;;3.72;;
83827;SDS011;73850;48.870;12.562;2023-11-22T08:30:52;7.63;;;3.67;;
83827;SDS011;73850;48.870;12.562;2023-11-22T08:35:44;4.55;;;3.88;;
83827;SDS011;73850;48.870;12.562;2023-11-22T08:38:15;4.30;;;3.83;;
83827;SDS011;73850;48.870;12.562;2023-11-22T08:40:42;4.85;;;3.95;;
83827;SDS011;73850;48.870;12.562;2023-11-22T08:43:08;4.70;;;3.70;;
83827;SDS011;73850;48.870;12.562;2023-11-22T08:45:34;5.35;;;4.15;;
83827;SDS011;73850;48.870;12.562;2023-11-22T08:48:00;9.82;;;4.47;;
83827;SDS011;73850;48.870;12.562;2023-11-22T08:50:26;5.35;;;4.00;;
83827;SDS011;73850;48.870;12.562;2023-11-22T08:52:52;5.53;;;4.22;;
83827;SDS011;73850;48.870;12.562;2023-11-22T08:55:20;5.78;;;4.30;;
83827;SDS011;73850;48.870;12.562;2023-11-22T08:57:50;5.50;;;4.20;;
83827;SDS011;73850;48.870;12.562;2023-11-22T09:00:16;4.55;;;3.88;;
83827;SDS011;73850;48.870;12.562;2023-11-22T09:02:47;6.07;;;4.25;;
83827;SDS011;73850;48.870;12.562;2023-11-22T09:05:14;5.63;;;4.47;;
83827;SDS011;73850;48.870;12.562;2023-11-22T09:07:42;5.32;;;4.28;;
83827;SDS011;73850;48.870;12.562;2023-11-22T09:10:09;4.85;;;4.10;;
83827;SDS011;73850;48.870;12.562;2023-11-22T09:12:38;5.15;;;4.22;;
83827;SDS011;73850;48.870;12.562;2023-11-22T09:15:09;5.05;;;4.00;;
83827;SDS011;73850;48.870;12.562;2023-11-22T09:17:39;6.35;;;4.88;;
83827;SDS011;73850;48.870;12.562;2023-11-22T09:20:11;6.95;;;5.20;;
83827;SDS011;73850;48.870;12.562;2023-11-22T09:22:47;4.82;;;4.20;;
83827;SDS011;73850;48.870;12.562;2023-11-22T09:25:19;5.32;;;4.32;;
83827;SDS011;73850;48.870;12.562;2023-11-22T09:27:52;6.28;;;4.78;;
83827;SDS011;73850;48.870;12.562;2023-11-22T09:30:27;5.30;;;4.80;;
83827;SDS011;73850;48.870;12.562;2023-11-22T09:35:27;5.35;;;4.35;;
83827;SDS011;73850;48.870;12.562;2023-11-22T09:37:57;5.70;;;4.45;;
83827;SDS011;73850;48.870;12.562;2023-11-22T09:40:23;5.70;;;4.05;;
83827;SDS011;73850;48.870;12.562;2023-11-22T09:42:52;6.20;;;4.72;;
83827;SDS011;73850;48.870;12.562;2023-11-22T09:45:19;6.63;;;5.07;;
83827;SDS011;73850;48.870;12.562;2023-11-22T09:47:45;6.65;;;4.70;;
83827;SDS011;73850;48.870;12.562;2023-11-22T09:50:17;4.78;;;4.28;;
83827;SDS011;73850;48.870;12.562;2023-11-22T09:53:07;5.30;;;4.28;;
83827;SDS011;73850;48.870;12.562;2023-11-22T09:55:37;5.07;;;4.57;;
83827;SDS011;73850;48.870;12.562;2023-11-22T09:58:06;7.78;;;5.00;;
83827;SDS011;73850;48.870;12.562;2023-11-22T10:00:32;6.00;;;4.82;;
83827;SDS011;73850;48.870;12.562;2023-11-22T10:02:58;9.60;;;5.25;;
83827;SDS011;73850;48.870;12.562;2023-11-22T10:05:24;6.30;;;4.43;;
83827;SDS011;73850;48.870;12.562;2023-11-22T10:07:53;5.72;;;4.13;;
83827;SDS011;73850;48.870;12.562;2023-11-22T10:10:20;5.40;;;4.47;;
83827;SDS011;73850;48.870;12.562;2023-11-22T10:12:53;6.53;;;4.95;;
83827;SDS011;73850;48.870;12.562;2023-11-22T10:15:21;5.35;;;4.65;;
83827;SDS011;73850;48.870;12.562;2023-11-22T10:17:54;6.25;;;4.68;;
83827;SDS011;73850;48.870;12.562;2023-11-22T10:20:22;5.75;;;5.00;;
83827;SDS011;73850;48.870;12.562;2023-11-22T10:23:08;6.82;;;4.85;;
83827;SDS011;73850;48.870;12.562;2023-11-22T10:25:36;6.82;;;5.13;;
83827;SDS011;73850;48.870;12.562;2023-11-22T10:28:02;5.68;;;4.90;;
83827;SDS011;73850;48.870;12.562;2023-11-22T10:30:28;5.63;;;4.72;;
83827;SDS011;73850;48.870;12.562;2023-11-22T10:32:55;5.60;;;4.88;;
83827;SDS011;73850;48.870;12.562;2023-11-22T10:35:21;6.75;;;4.70;;
83827;SDS011;73850;48.870;12.562;2023-11-22T10:37:49;6.97;;;5.32;;
83827;SDS011;73850;48.870;12.562;2023-11-22T10:40:15;6.82;;;4.80;;
83827;SDS011;73850;48.870;12.562;2023-11-22T10:42:41;7.30;;;6.15;;
83827;SDS011;73850;48.870;12.562;2023-11-22T10:45:11;7.90;;;5.20;;
83827;SDS011;73850;48.870;12.562;2023-11-22T10:47:38;6.10;;;5.15;;
83827;SDS011;73850;48.870;12.562;2023-11-22T10:50:06;7.05;;;4.80;;
83827;SDS011;73850;48.870;12.562;2023-11-22T10:52:37;7.15;;;4.70;;
83827;SDS011;73850;48.870;12.562;2023-11-22T10:55:06;8.65;;;5.38;;
83827;SDS011;73850;48.870;12.562;2023-11-22T10:57:36;6.78;;;4.63;;
83827;SDS011;73850;48.870;12.562;2023-11-22T11:00:13;6.93;;;4.90;;
83827;SDS011;73850;48.870;12.562;2023-11-22T11:02:41;6.55;;;4.80;;
83827;SDS011;73850;48.870;12.562;2023-11-22T11:05:32;6.97;;;5.28;;
83827;SDS011;73850;48.870;12.562;2023-11-22T11:10:35;7.63;;;5.03;;
83827;SDS011;73850;48.870;12.562;2023-11-22T11:13:05;6.88;;;5.03;;
83827;SDS011;73850;48.870;12.562;2023-11-22T11:15:31;8.27;;;5.50;;
83827;SDS011;73850;48.870;12.562;2023-11-22T11:17:57;8.52;;;5.50;;
83827;SDS011;73850;48.870;12.562;2023-11-22T11:20:24;8.20;;;6.00;;
83827;SDS011;73850;48.870;12.562;2023-11-22T11:22:49;9.45;;;5.85;;
83827;SDS011;73850;48.870;12.562;2023-11-22T11:25:17;7.70;;;5.85;;
83827;SDS011;73850;48.870;12.562;2023-11-22T11:33:08;9.13;;;6.68;;
83827;SDS011;73850;48.870;12.562;2023-11-22T11:35:38;9.52;;;6.40;;
83827;SDS011;73850;48.870;12.562;2023-11-22T11:38:07;9.60;;;6.15;;
83827;SDS011;73850;48.870;12.562;2023-11-22T11:40:35;8.52;;;6.20;;
83827;SDS011;73850;48.870;12.562;2023-11-22T11:43:01;9.80;;;6.72;;
83827;SDS011;73850;48.870;12.562;2023-11-22T11:45:27;10.05;;;6.45;;
83827;SDS011;73850;48.870;12.562;2023-11-22T11:47:54;9.48;;;6.47;;
83827;SDS011;73850;48.870;12.562;2023-11-22T11:50:22;9.18;;;6.43;;
83827;SDS011;73850;48.870;12.562;2023-11-22T11:52:48;11.00;;;7.32;;
83827;SDS011;73850;48.870;12.562;2023-11-22T11:55:14;9.48;;;6.90;;
83827;SDS011;73850;48.870;12.562;2023-11-22T11:57:40;9.02;;;6.60;;
83827;SDS011;73850;48.870;12.562;2023-11-22T12:00:07;10.43;;;6.75;;
83827;SDS011;73850;48.870;12.562;2023-11-22T12:02:37;9.90;;;7.15;;
83827;SDS011;73850;48.870;12.562;2023-11-22T12:05:03;9.30;;;6.32;;
83827;SDS011;73850;48.870;12.562;2023-11-22T12:07:34;9.55;;;6.35;;
83827;SDS011;73850;48.870;12.562;2023-11-22T12:10:00;10.45;;;6.68;;
83827;SDS011;73850;48.870;12.562;2023-11-22T12:12:26;11.07;;;7.43;;
83827;SDS011;73850;48.870;12.562;2023-11-22T12:14:54;11.07;;;7.57;;
83827;SDS011;73850;48.870;12.562;2023-11-22T12:17:21;10.23;;;7.20;;
83827;SDS011;73850;48.870;12.562;2023-11-22T12:22:14;10.88;;;6.88;;
83827;SDS011;73850;48.870;12.562;2023-11-22T12:24:41;10.50;;;6.32;;
83827;SDS011;73850;48.870;12.562;2023-11-22T12:27:12;10.18;;;7.05;;
83827;SDS011;73850;48.870;12.562;2023-11-22T12:29:37;11.35;;;7.63;;
83827;SDS011;73850;48.870;12.562;2023-11-22T12:32:06;11.07;;;7.75;;
83827;SDS011;73850;48.870;12.562;2023-11-22T12:34:32;10.88;;;7.15;;
83827;SDS011;73850;48.870;12.562;2023-11-22T12:36:58;11.75;;;6.90;;
83827;SDS011;73850;48.870;12.562;2023-11-22T12:39:24;12.10;;;7.10;;
83827;SDS011;73850;48.870;12.562;2023-11-22T12:41:50;9.05;;;6.65;;
83827;SDS011;73850;48.870;12.562;2023-11-22T12:44:18;13.25;;;7.82;;
83827;SDS011;73850;48.870;12.562;2023-11-22T12:49:26;12.32;;;8.15;;
83827;SDS011;73850;48.870;12.562;2023-11-22T12:51:53;11.82;;;8.23;;
83827;SDS011;73850;48.870;12.562;2023-11-22T12:54:22;13.70;;;8.27;;
83827;SDS011;73850;48.870;12.562;2023-11-22T12:56:48;12.38;;;7.55;;
83827;SDS011;73850;48.870;12.562;2023-11-22T12:59:23;12.95;;;8.10;;
83827;SDS011;73850;48.870;12.562;2023-11-22T13:01:49;13.10;;;7.63;;
83827;SDS011;73850;48.870;12.562;2023-11-22T13:04:15;12.55;;;7.43;;
83827;SDS011;73850;48.870;12.562;2023-11-22T13:06:41;10.60;;;7.22;;
83827;SDS011;73850;48.870;12.562;2023-11-22T13:09:07;10.52;;;8.02;;
83827;SDS011;73850;48.870;12.562;2023-11-22T13:11:39;13.00;;;7.47;;
83827;SDS011;73850;48.870;12.562;2023-11-22T13:14:06;12.18;;;7.65;;
83827;SDS011;73850;48.870;12.562;2023-11-22T13:16:32;11.18;;;6.75;;
83827;SDS011;73850;48.870;12.562;2023-11-22T13:18:59;12.30;;;8.05;;
83827;SDS011;73850;48.870;12.562;2023-11-22T13:21:24;12.27;;;8.38;;
83827;SDS011;73850;48.870;12.562;2023-11-22T13:23:50;13.00;;;8.52;;
83827;SDS011;73850;48.870;12.562;2023-11-22T13:26:16;11.30;;;7.60;;
83827;SDS011;73850;48.870;12.562;2023-11-22T13:28:41;12.18;;;6.97;;
83827;SDS011;73850;48.870;12.562;2023-11-22T13:31:07;11.75;;;8.60;;
83827;SDS011;73850;48.870;12.562;2023-11-22T13:33:34;17.92;;;9.40;;
83827;SDS011;73850;48.870;12.562;2023-11-22T13:36:00;14.45;;;8.43;;
83827;SDS011;73850;48.870;12.562;2023-11-22T13:38:26;14.65;;;8.98;;
83827;SDS011;73850;48.870;12.562;2023-11-22T13:40:51;13.25;;;8.27;;
83827;SDS011;73850;48.870;12.562;2023-11-22T13:43:17;12.63;;;8.43;;
83827;SDS011;73850;48.870;12.562;2023-11-22T13:45:45;11.70;;;7.90;;
83827;SDS011;73850;48.870;12.562;2023-11-22T13:48:10;11.10;;;7.22;;
83827;SDS011;73850;48.870;12.562;2023-11-22T13:50:36;12.05;;;8.60;;
83827;SDS011;73850;48.870;12.562;2023-11-22T13:53:02;13.82;;;8.77;;
83827;SDS011;73850;48.870;12.562;2023-11-22T13:57:55;19.40;;;11.68;;
83827;SDS011;73850;48.870;12.562;2023-11-22T14:00:23;16.23;;;8.70;;
83827;SDS011;73850;48.870;12.562;2023-11-22T14:02:54;13.20;;;8.40;;
83827;SDS011;73850;48.870;12.562;2023-11-22T14:05:24;15.05;;;8.38;;
83827;SDS011;73850;48.870;12.562;2023-11-22T14:07:51;13.73;;;8.52;;
83827;SDS011;73850;48.870;12.562;2023-11-22T14:10:18;14.20;;;8.63;;
83827;SDS011;73850;48.870;12.562;2023-11-22T14:12:44;13.23;;;9.00;;
83827;SDS011;73850;48.870;12.562;2023-11-22T14:15:13;13.80;;;8.25;;
83827;SDS011;73850;48.870;12.562;2023-11-22T14:17:39;12.27;;;8.40;;
83827;SDS011;73850;48.870;12.562;2023-11-22T14:22:36;11.70;;;8.07;;
83827;SDS011;73850;48.870;12.562;2023-11-22T14:25:02;12.27;;;8.68;;
83827;SDS011;73850;48.870;12.562;2023-11-22T14:27:28;14.30;;;8.38;;
83827;SDS011;73850;48.870;12.562;2023-11-22T14:29:56;13.48;;;8.23;;
83827;SDS011;73850;48.870;12.562;2023-11-22T14:32:22;12.85;;;8.13;;
83827;SDS011;73850;48.870;12.562;2023-11-22T14:34:48;13.20;;;8.25;;
83827;SDS011;73850;48.870;12.562;2023-11-22T14:37:13;15.82;;;9.00;;
83827;SDS011;73850;48.870;12.562;2023-11-22T14:39:40;15.43;;;8.68;;
83827;SDS011;73850;48.870;12.562;2023-11-22T14:42:06;14.50;;;9.35;;
83827;SDS011;73850;48.870;12.562;2023-11-22T14:44:35;13.48;;;8.70;;
83827;SDS011;73850;48.870;12.562;2023-11-22T14:47:01;12.80;;;8.00;;
83827;SDS011;73850;48.870;12.562;2023-11-22T14:49:37;13.75;;;8.18;;
83827;SDS011;73850;48.870;12.562;2023-11-22T14:52:04;14.20;;;7.60;;
83827;SDS011;73850;48.870;12.562;2023-11-22T14:54:29;15.25;;;8.93;;
83827;SDS011;73850;48.870;12.562;2023-11-22T14:56:55;13.00;;;8.77;;
83827;SDS011;73850;48.870;12.562;2023-11-22T14:59:25;14.13;;;8.52;;
83827;SDS011;73850;48.870;12.562;2023-11-22T15:01:51;15.10;;;8.10;;
83827;SDS011;73850;48.870;12.562;2023-11-22T15:04:17;12.38;;;6.93;;
83827;SDS011;73850;48.870;12.562;2023-11-22T15:06:43;14.05;;;8.13;;
83827;SDS011;73850;48.870;12.562;2023-11-22T15:09:10;12.88;;;7.72;;